Time;durP1;ratioP1;P1;durP2;ratioP2;P2;SDS_P1;SDS_P2;PMS_P1;PMS_P2;Temp;Humidity;BMP_temperature;BMP_pressure;BME280_temperature;BME280_humidity;BME280_pressure;Samples;Min_cycle;Max_cycle;Signal;HPM_P1;HPM_P2
2022/12/31 00:01:10;;;;;;;13.77;2.95;;;12.30;99.90;;;;;;5020682;28;20180;-79
2022/12/31 00:03:37;;;;;;;11.00;2.80;;;12.30;99.90;;;;;;5032468;28;20184;-78
2022/12/31 00:06:21;;;;;;;18.42;3.50;;;12.30;99.90;;;;;;5040376;28;20224;-79
2022/12/31 00:08:48;;;;;;;17.70;3.42;;;12.40;99.90;;;;;;5032725;28;20197;-78
2022/12/31 00:11:14;;;;;;;16.27;3.78;;;12.40;99.90;;;;;;5047344;28;20183;-77
2022/12/31 00:13:40;;;;;;;18.75;3.60;;;12.30;99.90;;;;;;5021638;28;20188;-78
2022/12/31 00:16:15;;;;;;;12.70;3.75;;;12.40;99.90;;;;;;5032664;28;20230;-78
2022/12/31 00:18:46;;;;;;;16.95;3.80;;;12.40;99.90;;;;;;5033244;28;20267;-78
2022/12/31 00:21:12;;;;;;;14.85;3.60;;;12.40;99.90;;;;;;5051632;28;20644;-78
2022/12/31 00:23:38;;;;;;;17.77;3.83;;;12.40;99.90;;;;;;5051206;28;20640;-80
2022/12/31 00:26:07;;;;;;;14.50;3.92;;;12.40;99.90;;;;;;5033517;28;20184;-81
2022/12/31 00:28:34;;;;;;;14.52;4.40;;;12.40;99.90;;;;;;5036993;28;20266;-79
2022/12/31 00:31:13;;;;;;;15.52;4.63;;;12.40;99.90;;;;;;5036319;28;20188;-78
2022/12/31 00:33:40;;;;;;;19.20;4.25;;;12.40;99.90;;;;;;5036897;28;20227;-79
2022/12/31 00:36:14;;;;;;;17.45;4.63;;;12.40;99.90;;;;;;5045044;28;20222;-79
2022/12/31 00:38:42;;;;;;;15.77;4.03;;;12.40;99.90;;;;;;5034093;28;20179;-78
2022/12/31 00:41:09;;;;;;;15.05;4.18;;;12.40;99.90;;;;;;5034480;28;20241;-78
2022/12/31 00:43:35;;;;;;;15.68;4.40;;;12.50;99.90;;;;;;5037269;28;20192;-77
2022/12/31 00:46:02;;;;;;;20.02;5.15;;;12.50;99.90;;;;;;5035748;28;20230;-79
2022/12/31 00:48:28;;;;;;;13.85;4.10;;;12.50;99.90;;;;;;5026032;28;20196;-78
2022/12/31 00:50:55;;;;;;;23.23;4.63;;;12.50;99.90;;;;;;5051032;28;20203;-78
2022/12/31 00:53:21;;;;;;;21.60;5.25;;;12.50;99.90;;;;;;5036920;28;20229;-78
2022/12/31 00:55:47;;;;;;;16.45;4.03;;;12.50;99.90;;;;;;5034052;28;20176;-79
2022/12/31 00:58:13;;;;;;;19.88;4.35;;;12.50;99.90;;;;;;5028499;28;20195;-82
2022/12/31 01:00:40;;;;;;;23.17;4.65;;;12.50;99.90;;;;;;5038941;28;20201;-79
2022/12/31 01:03:06;;;;;;;20.42;4.75;;;12.50;99.90;;;;;;5033166;28;20185;-78
2022/12/31 01:05:34;;;;;;;25.95;4.88;;;12.50;99.90;;;;;;5049916;28;20690;-79
2022/12/31 01:08:00;;;;;;;24.15;4.47;;;12.50;99.90;;;;;;5022799;28;20632;-78
2022/12/31 01:13:10;;;;;;;28.52;4.82;;;12.50;99.90;;;;;;5042425;28;20243;-77
2022/12/31 01:15:37;;;;;;;24.88;4.40;;;12.50;99.90;;;;;;5024534;28;20203;-79
2022/12/31 01:18:05;;;;;;;22.42;4.03;;;12.50;99.90;;;;;;5027949;28;20212;-79
2022/12/31 01:20:36;;;;;;;21.13;4.90;;;12.50;99.90;;;;;;5037385;28;20203;-78
2022/12/31 01:23:02;;;;;;;24.60;5.28;;;12.50;99.90;;;;;;5035213;28;20160;-78
2022/12/31 01:25:28;;;;;;;22.80;4.63;;;12.50;99.90;;;;;;5030703;28;20188;-79
2022/12/31 01:27:54;;;;;;;21.42;4.57;;;12.50;99.90;;;;;;5033120;28;20211;-79
2022/12/31 01:30:19;;;;;;;23.92;5.28;;;12.50;99.90;;;;;;5033653;28;20184;-81
2022/12/31 01:32:45;;;;;;;23.30;5.10;;;12.50;99.90;;;;;;5020191;28;20184;-79
2022/12/31 01:35:11;;;;;;;21.27;5.30;;;12.50;99.90;;;;;;5023959;28;20199;-79
2022/12/31 01:37:37;;;;;;;27.23;5.03;;;12.50;99.90;;;;;;5031123;28;20235;-79
2022/12/31 01:40:04;;;;;;;19.27;4.75;;;12.50;99.90;;;;;;5032432;28;20187;-79
2022/12/31 01:42:29;;;;;;;29.13;5.55;;;12.50;99.90;;;;;;5033542;28;20329;-79
2022/12/31 01:44:56;;;;;;;26.30;5.50;;;12.50;99.90;;;;;;5032848;28;20188;-79
2022/12/31 01:47:38;;;;;;;18.45;5.15;;;12.50;99.90;;;;;;5047251;28;20312;-80
2022/12/31 01:50:20;;;;;;;18.70;4.60;;;12.50;99.90;;;;;;5027752;28;20640;-82
2022/12/31 01:52:53;;;;;;;21.38;4.70;;;12.50;99.90;;;;;;5034157;28;20187;-78
2022/12/31 01:55:36;;;;;;;18.65;5.05;;;12.50;99.90;;;;;;5044998;28;20180;-78
2022/12/31 01:58:21;;;;;;;17.15;4.80;;;12.50;99.90;;;;;;5029563;28;20298;-84
2022/12/31 02:00:48;;;;;;;15.98;4.47;;;12.50;99.90;;;;;;5048059;28;20184;-79
2022/12/31 02:03:14;;;;;;;16.95;4.43;;;12.50;99.90;;;;;;5025787;28;20203;-77
2022/12/31 02:06:02;;;;;;;17.58;4.88;;;12.50;99.90;;;;;;5040462;28;20254;-79
2022/12/31 02:08:28;;;;;;;16.52;4.93;;;12.50;99.90;;;;;;5014706;28;20169;-79
2022/12/31 02:10:53;;;;;;;15.40;4.38;;;12.50;99.90;;;;;;5028759;28;20640;-79
2022/12/31 02:13:19;;;;;;;18.05;4.40;;;12.50;99.90;;;;;;5031661;28;20667;-79
2022/12/31 02:16:12;;;;;;;15.02;4.55;;;12.50;99.90;;;;;;5033137;28;20666;-79
2022/12/31 02:18:46;;;;;;;14.30;4.82;;;12.50;99.90;;;;;;5024207;28;20269;-79
2022/12/31 02:21:34;;;;;;;21.95;5.22;;;12.50;99.90;;;;;;5028393;28;20176;-78
2022/12/31 02:24:02;;;;;;;16.05;5.60;;;12.50;99.90;;;;;;5046939;28;20214;-80
2022/12/31 02:26:46;;;;;;;15.60;5.65;;;12.50;99.90;;;;;;5044223;28;20192;-79
2022/12/31 02:29:27;;;;;;;16.77;5.25;;;12.50;99.90;;;;;;5033740;28;20175;-78
2022/12/31 02:32:08;;;;;;;12.30;5.57;;;12.50;99.90;;;;;;5034503;28;20540;-78
2022/12/31 02:34:45;;;;;;;18.45;5.60;;;12.50;99.90;;;;;;5060231;28;20686;-82
2022/12/31 02:37:13;;;;;;;12.45;5.25;;;12.50;99.90;;;;;;5042699;28;20201;-79
2022/12/31 02:39:41;;;;;;;15.13;5.13;;;12.50;99.90;;;;;;5031808;28;20223;-78
2022/12/31 02:42:08;;;;;;;17.25;4.97;;;12.60;99.90;;;;;;5045221;28;20210;-78
2022/12/31 02:44:35;;;;;;;13.23;4.72;;;12.50;99.90;;;;;;5031872;28;20655;-77
2022/12/31 02:47:07;;;;;;;12.38;4.95;;;12.60;99.90;;;;;;5027979;28;20202;-78
2022/12/31 02:49:53;;;;;;;11.93;4.47;;;12.50;99.90;;;;;;5030705;28;20176;-78
2022/12/31 02:52:38;;;;;;;12.20;3.85;;;12.60;99.90;;;;;;5037167;28;20184;-78
2022/12/31 02:55:40;;;;;;;12.13;4.72;;;12.50;99.90;;;;;;5034071;28;20187;-78
2022/12/31 03:04:32;;;;;;;9.38;3.65;;;12.50;99.90;;;;;;5018702;28;20172;-78
2022/12/31 03:07:05;;;;;;;10.18;3.45;;;12.50;99.90;;;;;;5038158;28;20208;-78
2022/12/31 03:09:31;;;;;;;9.60;3.67;;;12.60;99.90;;;;;;5031843;28;20234;-78
2022/12/31 03:14:42;;;;;;;9.57;3.33;;;12.50;99.90;;;;;;5036899;28;20180;-78
2022/12/31 03:17:07;;;;;;;8.23;3.22;;;12.50;99.90;;;;;;5027753;28;20200;-79
2022/12/31 03:22:26;;;;;;;8.55;2.90;;;12.50;99.90;;;;;;5030204;28;20674;-77
2022/12/31 03:27:39;;;;;;;7.53;2.85;;;12.50;99.90;;;;;;5021422;28;20190;-77
2022/12/31 03:30:05;;;;;;;7.75;2.97;;;12.50;99.90;;;;;;5021373;28;20596;-78
2022/12/31 03:32:31;;;;;;;10.43;2.67;;;12.50;99.90;;;;;;5063830;28;20580;-77
2022/12/31 03:34:57;;;;;;;11.13;3.15;;;12.50;99.90;;;;;;5032145;28;20180;-79
2022/12/31 03:37:22;;;;;;;11.35;2.63;;;12.50;99.90;;;;;;5032827;28;20373;-79
2022/12/31 03:39:48;;;;;;;11.00;2.22;;;12.40;99.90;;;;;;5011393;28;20275;-80
2022/12/31 03:42:14;;;;;;;6.88;1.98;;;12.40;99.90;;;;;;5046911;28;20196;-79
2022/12/31 03:44:40;;;;;;;6.93;2.05;;;12.40;99.90;;;;;;5028467;28;20561;-79
2022/12/31 03:47:05;;;;;;;9.48;2.05;;;12.40;99.90;;;;;;5024694;28;20192;-79
2022/12/31 03:49:31;;;;;;;3.67;1.67;;;12.40;99.90;;;;;;5061646;28;20549;-79
2022/12/31 03:51:57;;;;;;;8.13;2.00;;;12.40;99.90;;;;;;5035880;28;20245;-79
2022/12/31 03:54:22;;;;;;;6.10;1.80;;;12.40;99.90;;;;;;5033621;28;20187;-79
2022/12/31 03:56:48;;;;;;;6.47;1.60;;;12.40;99.90;;;;;;5035052;28;20211;-80
2022/12/31 03:59:14;;;;;;;8.80;1.58;;;12.30;99.90;;;;;;5045349;28;20187;-79
2022/12/31 04:01:40;;;;;;;8.00;1.70;;;12.30;99.90;;;;;;5036497;28;20200;-79
2022/12/31 04:04:05;;;;;;;6.22;1.55;;;12.30;99.90;;;;;;5035649;28;20292;-78
2022/12/31 04:06:31;;;;;;;8.10;1.65;;;12.30;99.90;;;;;;5054811;28;20290;-79
2022/12/31 04:08:57;;;;;;;7.50;1.52;;;12.30;99.90;;;;;;5030836;28;20620;-84
2022/12/31 04:11:22;;;;;;;7.07;1.40;;;12.30;99.90;;;;;;5066058;28;20639;-80
2022/12/31 04:13:48;;;;;;;4.43;1.15;;;12.20;99.90;;;;;;5036282;28;20255;-79
2022/12/31 04:16:14;;;;;;;6.40;1.20;;;12.30;99.90;;;;;;5028612;28;20671;-79
2022/12/31 04:18:40;;;;;;;6.25;1.05;;;12.20;99.90;;;;;;5035103;28;20180;-78
2022/12/31 04:21:07;;;;;;;7.45;1.23;;;12.20;99.90;;;;;;5019657;28;20246;-79
2022/12/31 04:23:33;;;;;;;6.78;1.13;;;12.20;99.90;;;;;;5030816;28;20179;-79
2022/12/31 04:25:58;;;;;;;4.35;1.02;;;12.20;99.90;;;;;;5030111;28;20265;-80
2022/12/31 04:28:24;;;;;;;4.22;1.17;;;12.20;99.90;;;;;;5033629;28;20218;-79
2022/12/31 04:30:50;;;;;;;7.10;1.30;;;12.20;99.90;;;;;;5035691;28;20199;-79
2022/12/31 04:33:16;;;;;;;6.28;1.70;;;12.20;99.90;;;;;;5036437;28;20234;-78
2022/12/31 04:35:41;;;;;;;8.65;1.70;;;12.20;99.90;;;;;;5029978;28;20640;-83
2022/12/31 04:38:07;;;;;;;4.10;1.40;;;12.20;99.90;;;;;;5028394;28;20263;-79
2022/12/31 04:40:33;;;;;;;5.95;1.88;;;12.10;99.90;;;;;;5046599;28;20188;-79
2022/12/31 04:42:59;;;;;;;8.93;1.85;;;12.10;99.90;;;;;;5034967;28;20667;-79
2022/12/31 04:45:24;;;;;;;6.82;2.03;;;12.10;99.90;;;;;;5036522;28;20184;-79
2022/12/31 04:47:50;;;;;;;6.03;1.65;;;12.10;99.90;;;;;;5059165;28;20184;-81
2022/12/31 04:50:16;;;;;;;8.05;2.40;;;12.10;99.90;;;;;;5034958;28;20234;-79
2022/12/31 04:52:41;;;;;;;9.18;2.88;;;12.10;99.90;;;;;;5027829;28;20184;-79
2022/12/31 04:55:07;;;;;;;8.38;2.22;;;12.10;99.90;;;;;;5033369;28;20636;-79
2022/12/31 04:57:33;;;;;;;6.43;2.05;;;12.10;99.90;;;;;;5029060;28;20203;-80
2022/12/31 04:59:59;;;;;;;9.05;2.17;;;12.10;99.90;;;;;;5033938;28;20195;-79
2022/12/31 05:02:24;;;;;;;7.32;2.33;;;12.10;99.90;;;;;;5056649;28;20187;-79
2022/12/31 05:04:50;;;;;;;6.00;2.05;;;12.00;99.90;;;;;;5049973;28;20268;-79
2022/12/31 05:07:16;;;;;;;6.20;2.20;;;12.10;99.90;;;;;;5054970;28;20191;-79
2022/12/31 05:09:42;;;;;;;5.60;1.63;;;12.00;99.90;;;;;;5024103;28;20184;-80
2022/12/31 05:12:08;;;;;;;5.32;2.17;;;12.00;99.90;;;;;;5020695;28;20176;-79
2022/12/31 05:14:33;;;;;;;4.18;1.75;;;12.00;99.90;;;;;;5042370;28;20324;-79
2022/12/31 05:16:59;;;;;;;5.55;1.90;;;12.10;99.90;;;;;;5034865;28;20251;-80
2022/12/31 05:19:25;;;;;;;7.10;2.42;;;12.00;99.90;;;;;;5059668;28;20207;-79
2022/12/31 05:24:35;;;;;;;7.70;2.40;;;12.00;99.90;;;;;;5034484;28;20187;-80
2022/12/31 05:27:01;;;;;;;4.72;2.20;;;12.00;99.90;;;;;;5050616;28;20184;-80
2022/12/31 05:29:27;;;;;;;9.02;2.38;;;12.00;99.90;;;;;;5066494;28;20707;-80
2022/12/31 05:31:52;;;;;;;9.57;2.38;;;12.00;99.90;;;;;;5027575;28;20633;-79
2022/12/31 05:34:18;;;;;;;6.30;2.10;;;12.00;99.90;;;;;;5051997;28;20196;-80
2022/12/31 05:36:44;;;;;;;7.55;2.30;;;12.00;99.90;;;;;;5028291;28;20294;-79
2022/12/31 05:39:10;;;;;;;8.93;2.45;;;12.00;99.90;;;;;;5033979;28;20191;-81
2022/12/31 05:41:35;;;;;;;9.95;2.40;;;12.00;99.90;;;;;;5034586;28;20613;-80
2022/12/31 05:44:01;;;;;;;10.50;2.63;;;12.00;99.90;;;;;;5049318;28;20184;-81
2022/12/31 05:46:27;;;;;;;8.15;2.47;;;12.00;99.90;;;;;;5017569;28;20196;-80
2022/12/31 05:48:52;;;;;;;9.07;2.55;;;12.00;99.90;;;;;;5045197;28;20188;-79
2022/12/31 05:51:18;;;;;;;8.25;2.50;;;12.00;99.90;;;;;;5049232;28;20188;-80
2022/12/31 05:53:44;;;;;;;13.50;2.90;;;12.00;99.90;;;;;;5034691;28;20688;-77
2022/12/31 05:56:10;;;;;;;6.03;2.10;;;12.00;99.90;;;;;;5032038;28;20529;-78
2022/12/31 05:58:35;;;;;;;7.10;2.10;;;12.00;99.90;;;;;;5050386;28;20202;-78
2022/12/31 06:01:01;;;;;;;5.38;1.80;;;12.00;99.90;;;;;;5031897;28;20229;-78
2022/12/31 06:03:27;;;;;;;8.27;2.00;;;12.00;99.90;;;;;;5033851;28;20643;-77
2022/12/31 06:05:53;;;;;;;8.55;2.25;;;12.00;99.90;;;;;;5049432;28;20618;-79
2022/12/31 06:08:18;;;;;;;9.65;1.73;;;12.00;99.90;;;;;;5073435;28;20179;-78
2022/12/31 06:10:44;;;;;;;6.78;1.70;;;12.00;99.90;;;;;;5074998;28;20270;-76
2022/12/31 06:13:10;;;;;;;5.70;1.70;;;12.00;99.90;;;;;;5051985;28;20644;-78
2022/12/31 06:15:38;;;;;;;6.72;1.73;;;12.00;99.90;;;;;;5036055;28;20188;-79
2022/12/31 06:18:04;;;;;;;4.85;1.48;;;12.00;99.90;;;;;;5035395;28;20243;-78
2022/12/31 06:20:30;;;;;;;5.20;1.67;;;12.00;99.90;;;;;;5049836;28;20216;-78
2022/12/31 06:22:55;;;;;;;6.70;2.08;;;11.90;99.90;;;;;;5035312;28;20655;-81
2022/12/31 06:25:21;;;;;;;4.50;1.80;;;11.90;99.90;;;;;;5030465;28;21985;-78
2022/12/31 06:27:47;;;;;;;6.68;1.75;;;11.90;99.90;;;;;;5031916;28;20218;-79
2022/12/31 06:30:13;;;;;;;3.83;1.90;;;11.90;99.90;;;;;;5047660;28;20188;-80
2022/12/31 06:32:39;;;;;;;5.30;1.60;;;11.90;99.90;;;;;;5034115;28;20325;-79
2022/12/31 06:35:06;;;;;;;6.70;1.83;;;11.90;99.90;;;;;;5030472;28;20667;-79
2022/12/31 06:37:32;;;;;;;5.78;1.48;;;11.90;99.90;;;;;;5031962;28;20204;-79
2022/12/31 06:39:59;;;;;;;2.78;1.30;;;11.80;99.90;;;;;;5032164;28;20526;-80
2022/12/31 06:42:28;;;;;;;5.28;1.30;;;11.80;99.90;;;;;;5046870;28;20192;-80
2022/12/31 06:44:53;;;;;;;3.63;0.95;;;11.80;99.90;;;;;;5032583;28;20214;-79
2022/12/31 06:47:19;;;;;;;3.80;1.10;;;11.70;99.90;;;;;;5034151;28;20541;-79
2022/12/31 06:49:45;;;;;;;2.17;0.90;;;11.70;99.90;;;;;;5054392;28;20187;-79
2022/12/31 06:52:11;;;;;;;4.47;1.00;;;11.70;99.90;;;;;;5051054;28;20278;-80
2022/12/31 06:54:37;;;;;;;4.32;1.20;;;11.60;99.90;;;;;;5048548;28;20203;-78
2022/12/31 06:57:03;;;;;;;3.08;0.85;;;11.60;99.90;;;;;;5064183;28;20303;-80
2022/12/31 06:59:29;;;;;;;3.50;1.00;;;11.60;99.90;;;;;;5048223;28;20184;-77
2022/12/31 07:02:12;;;;;;;3.88;1.00;;;11.60;99.90;;;;;;5022537;28;20292;-78
2022/12/31 07:05:08;;;;;;;5.68;1.30;;;11.60;99.90;;;;;;5053579;28;20190;-81
2022/12/31 07:07:52;;;;;;;4.70;1.50;;;11.60;99.90;;;;;;5023097;28;20189;-81
2022/12/31 07:10:47;;;;;;;4.10;1.42;;;11.50;99.90;;;;;;5024136;28;20188;-80
2022/12/31 07:13:12;;;;;;;4.47;2.33;;;11.60;99.90;;;;;;5039485;28;20198;-78
2022/12/31 07:15:56;;;;;;;5.00;2.70;;;11.60;99.90;;;;;;5032614;28;20643;-78
2022/12/31 07:18:37;;;;;;;6.03;3.00;;;11.60;99.90;;;;;;5047365;28;20643;-79
2022/12/31 07:21:07;;;;;;;5.70;3.47;;;11.60;99.90;;;;;;5040924;28;20184;-79
2022/12/31 07:23:33;;;;;;;5.25;3.97;;;11.50;99.90;;;;;;5043884;28;20214;-79
2022/12/31 07:26:13;;;;;;;6.15;3.80;;;11.60;99.90;;;;;;5030245;28;20215;-79
2022/12/31 07:28:51;;;;;;;5.28;4.50;;;11.60;99.90;;;;;;5048391;28;20160;-80
2022/12/31 07:31:43;;;;;;;4.40;3.85;;;11.60;99.90;;;;;;5026193;28;20199;-79
2022/12/31 07:34:26;;;;;;;5.60;4.25;;;11.60;99.90;;;;;;5011464;28;20213;-80
2022/12/31 07:37:02;;;;;;;5.97;4.00;;;11.60;99.90;;;;;;5013193;28;20204;-79
2022/12/31 07:39:40;;;;;;;4.10;3.38;;;11.60;99.90;;;;;;5015814;28;20187;-78
2022/12/31 07:42:27;;;;;;;4.50;3.15;;;11.60;99.90;;;;;;5031540;28;20218;-78
2022/12/31 07:45:26;;;;;;;3.75;3.17;;;11.60;99.90;;;;;;5022957;28;20187;-79
2022/12/31 07:47:52;;;;;;;6.55;3.45;;;11.60;99.90;;;;;;5012960;28;20195;-78
2022/12/31 07:50:18;;;;;;;5.75;3.08;;;11.60;99.90;;;;;;5022271;28;20180;-78
2022/12/31 07:52:45;;;;;;;5.63;3.17;;;11.60;99.90;;;;;;5031162;28;21080;-80
2022/12/31 07:55:10;;;;;;;2.92;2.65;;;11.60;99.90;;;;;;5021514;28;20246;-78
2022/12/31 07:58:02;;;;;;;3.83;3.30;;;11.60;99.90;;;;;;5045801;28;20660;-78
2022/12/31 08:00:29;;;;;;;4.28;3.17;;;11.60;99.90;;;;;;5024180;28;20191;-78
2022/12/31 08:03:02;;;;;;;5.18;3.35;;;11.60;99.90;;;;;;5030511;28;20766;-80
2022/12/31 08:05:35;;;;;;;4.55;3.10;;;11.60;99.90;;;;;;5032958;28;20220;-82
2022/12/31 08:08:39;;;;;;;5.65;3.42;;;11.60;99.90;;;;;;5013871;28;20619;-79
2022/12/31 08:11:45;;;;;;;4.93;3.20;;;11.60;99.90;;;;;;5043349;28;20667;-79
2022/12/31 08:14:14;;;;;;;4.00;2.92;;;11.60;99.90;;;;;;5008220;28;20191;-79
2022/12/31 08:16:40;;;;;;;5.18;3.20;;;11.60;99.90;;;;;;5019877;28;20660;-78
2022/12/31 08:19:06;;;;;;;5.35;3.78;;;11.60;99.90;;;;;;5046357;28;20231;-78
2022/12/31 08:21:42;;;;;;;4.25;2.90;;;11.60;99.90;;;;;;5047879;28;20184;-78
2022/12/31 08:24:20;;;;;;;5.03;3.63;;;11.60;99.90;;;;;;5031079;28;20168;-78
2022/12/31 08:26:50;;;;;;;3.50;2.83;;;11.60;99.90;;;;;;5029999;28;20282;-78
2022/12/31 08:29:48;;;;;;;4.05;2.78;;;11.60;99.90;;;;;;5028618;28;20276;-79
2022/12/31 08:32:36;;;;;;;2.88;2.28;;;11.60;99.90;;;;;;5023817;28;20176;-78
2022/12/31 08:35:11;;;;;;;2.80;2.50;;;11.60;99.90;;;;;;5025044;28;20196;-80
2022/12/31 08:37:43;;;;;;;4.55;2.20;;;11.60;99.90;;;;;;5018884;28;20191;-81
2022/12/31 08:40:42;;;;;;;2.28;2.08;;;11.60;99.90;;;;;;5042917;28;20191;-78
2022/12/31 08:43:44;;;;;;;2.17;1.50;;;11.50;99.90;;;;;;5027853;28;20207;-80
2022/12/31 08:46:24;;;;;;;1.50;1.40;;;11.60;99.90;;;;;;5002415;28;20198;-79
2022/12/31 08:48:50;;;;;;;1.55;1.35;;;11.60;99.90;;;;;;5064248;28;20175;-79
2022/12/31 08:51:21;;;;;;;1.48;1.38;;;11.60;99.90;;;;;;5017560;28;20197;-79
2022/12/31 08:53:47;;;;;;;1.55;1.45;;;11.60;99.90;;;;;;5066080;28;20342;-79
2022/12/31 08:56:30;;;;;;;2.00;1.70;;;11.60;99.90;;;;;;5018175;28;20180;-79
2022/12/31 08:58:59;;;;;;;2.35;2.10;;;11.70;99.90;;;;;;5043524;28;20191;-79
2022/12/31 09:01:28;;;;;;;2.40;2.20;;;11.70;99.90;;;;;;5029669;28;20183;-79
2022/12/31 09:04:20;;;;;;;3.00;2.70;;;11.80;99.90;;;;;;5023286;28;20214;-79
2022/12/31 09:07:12;;;;;;;2.78;2.50;;;11.80;99.90;;;;;;5017100;28;20232;-80
2022/12/31 09:09:51;;;;;;;2.70;2.50;;;11.90;99.90;;;;;;5017556;28;20671;-79
2022/12/31 09:12:19;;;;;;;5.15;4.32;;;11.90;99.90;;;;;;5035771;28;20184;-81
2022/12/31 09:15:20;;;;;;;3.33;3.03;;;11.90;99.90;;;;;;5050517;28;20192;-83
2022/12/31 09:17:49;;;;;;;3.13;2.80;;;12.00;99.90;;;;;;5023602;28;21254;-78
2022/12/31 09:20:24;;;;;;;3.72;3.17;;;12.00;99.90;;;;;;5030910;28;20195;-79
2022/12/31 09:22:50;;;;;;;3.35;3.05;;;12.20;99.90;;;;;;5034082;28;20193;-80
2022/12/31 09:25:19;;;;;;;3.85;3.33;;;12.20;99.90;;;;;;5035266;28;20254;-78
2022/12/31 09:28:07;;;;;;;4.05;3.20;;;12.20;99.90;;;;;;5029365;28;20929;-80
2022/12/31 09:30:45;;;;;;;5.80;3.08;;;12.30;99.90;;;;;;5027186;28;20183;-78
2022/12/31 09:33:23;;;;;;;4.15;3.00;;;12.40;99.90;;;;;;5045202;28;20177;-78
2022/12/31 09:35:56;;;;;;;4.18;3.03;;;12.40;99.90;;;;;;5028964;28;20265;-79
2022/12/31 09:38:37;;;;;;;3.47;2.63;;;12.40;99.90;;;;;;5027029;28;20216;-79
2022/12/31 09:41:06;;;;;;;5.15;3.03;;;12.50;99.90;;;;;;5032747;28;20202;-78
2022/12/31 09:43:56;;;;;;;3.67;2.60;;;12.60;99.90;;;;;;5015283;28;20655;-78
2022/12/31 09:46:40;;;;;;;4.53;2.55;;;12.60;99.90;;;;;;5048093;28;20195;-79
2022/12/31 09:49:24;;;;;;;4.50;2.35;;;12.70;99.90;;;;;;5031996;28;20184;-79
2022/12/31 09:52:07;;;;;;;6.07;2.13;;;12.70;99.90;;;;;;5021934;28;20215;-79
2022/12/31 09:55:12;;;;;;;5.70;1.95;;;12.70;99.90;;;;;;5036235;28;20176;-86
2022/12/31 09:57:58;;;;;;;3.88;2.00;;;12.80;99.90;;;;;;5023086;28;20219;-80
2022/12/31 10:00:41;;;;;;;5.15;2.00;;;12.80;99.90;;;;;;5030508;28;20274;-79
2022/12/31 10:03:35;;;;;;;5.93;1.85;;;12.90;99.90;;;;;;5032972;28;20190;-77
2022/12/31 10:06:12;;;;;;;4.75;1.65;;;12.90;99.90;;;;;;5045576;28;20227;-79
2022/12/31 10:08:56;;;;;;;4.63;1.90;;;13.00;99.90;;;;;;5046758;28;20245;-78
2022/12/31 10:11:59;;;;;;;3.03;1.63;;;13.00;99.90;;;;;;5033352;28;20283;-78
2022/12/31 10:14:55;;;;;;;5.22;1.30;;;13.00;99.90;;;;;;5043968;28;20233;-77
2022/12/31 10:17:32;;;;;;;5.45;1.33;;;13.10;99.90;;;;;;5022756;28;20207;-77
2022/12/31 10:20:35;;;;;;;4.18;1.60;;;13.10;99.90;;;;;;5026539;28;20191;-81
2022/12/31 10:23:07;;;;;;;6.47;1.65;;;13.20;99.90;;;;;;5027831;28;20183;-78
2022/12/31 10:25:45;;;;;;;6.22;1.80;;;13.30;99.90;;;;;;5032958;28;20184;-79
2022/12/31 10:28:29;;;;;;;4.75;1.50;;;13.30;99.90;;;;;;5033688;28;20226;-76
2022/12/31 10:31:04;;;;;;;7.75;1.73;;;13.40;99.90;;;;;;5028332;28;20970;-75
2022/12/31 10:33:40;;;;;;;5.25;1.45;;;13.40;99.90;;;;;;5033755;28;20187;-76
2022/12/31 10:36:22;;;;;;;7.93;1.52;;;13.50;99.90;;;;;;5028521;28;20193;-79
2022/12/31 10:39:11;;;;;;;9.70;1.85;;;13.50;99.90;;;;;;5033730;28;20196;-78
2022/12/31 10:41:48;;;;;;;5.80;1.30;;;13.60;99.90;;;;;;5031064;28;20550;-81
2022/12/31 10:44:45;;;;;;;13.90;2.10;;;13.60;99.90;;;;;;5014285;28;20188;-76
2022/12/31 10:47:33;;;;;;;10.13;1.70;;;13.70;99.90;;;;;;5048391;28;20261;-77
2022/12/31 10:50:38;;;;;;;7.88;1.60;;;13.70;99.90;;;;;;5021072;28;20172;-76
2022/12/31 10:53:38;;;;;;;7.40;1.63;;;13.80;99.90;;;;;;5031505;28;20206;-83
2022/12/31 10:56:18;;;;;;;9.45;1.73;;;14.00;99.90;;;;;;5030034;28;20207;-77
2022/12/31 10:59:13;;;;;;;10.05;1.67;;;14.10;99.90;;;;;;5013727;28;20215;-77
2022/12/31 11:02:16;;;;;;;8.43;1.60;;;14.20;99.90;;;;;;4998658;28;20195;-78
2022/12/31 11:05:01;;;;;;;13.18;2.03;;;14.30;99.90;;;;;;5020002;28;20202;-79
2022/12/31 11:07:45;;;;;;;7.65;1.92;;;14.30;99.90;;;;;;5052081;28;20183;-79
2022/12/31 11:10:29;;;;;;;9.82;2.00;;;14.30;99.90;;;;;;5047978;28;20185;-78
2022/12/31 11:13:20;;;;;;;8.85;1.75;;;14.30;99.90;;;;;;5030962;28;20188;-78
2022/12/31 11:16:04;;;;;;;8.38;2.00;;;14.30;99.90;;;;;;5036105;28;20179;-82
2022/12/31 11:18:51;;;;;;;8.93;1.98;;;14.20;99.90;;;;;;5028654;28;20263;-79
2022/12/31 11:21:38;;;;;;;10.60;2.33;;;14.20;99.90;;;;;;5032200;28;20207;-78
2022/12/31 11:24:28;;;;;;;19.17;2.22;;;14.20;99.90;;;;;;5038038;28;20184;-83
2022/12/31 11:26:57;;;;;;;13.50;2.30;;;14.20;99.90;;;;;;5034615;28;20338;-81
2022/12/31 11:30:05;;;;;;;11.30;2.05;;;14.20;99.90;;;;;;5025100;28;20609;-79
2022/12/31 11:33:01;;;;;;;10.13;2.13;;;14.20;99.90;;;;;;5024817;28;20246;-80
2022/12/31 11:35:58;;;;;;;13.20;2.33;;;14.10;99.90;;;;;;5012923;28;20206;-78
2022/12/31 11:38:39;;;;;;;10.75;2.30;;;14.20;99.90;;;;;;5019399;28;20730;-80
2022/12/31 11:41:11;;;;;;;11.57;2.28;;;14.10;99.90;;;;;;5029524;28;20270;-80
2022/12/31 11:43:49;;;;;;;9.95;2.08;;;14.20;99.90;;;;;;5048319;28;20176;-78
2022/12/31 11:46:15;;;;;;;10.95;2.15;;;14.10;99.90;;;;;;5032319;28;20184;-79
2022/12/31 11:49:05;;;;;;;13.77;2.58;;;14.20;99.90;;;;;;5036070;28;20199;-79
2022/12/31 11:51:49;;;;;;;11.38;1.90;;;14.20;99.90;;;;;;5032273;28;20175;-78
2022/12/31 11:54:42;;;;;;;7.97;2.33;;;14.20;99.90;;;;;;5031016;28;20175;-78
2022/12/31 11:57:23;;;;;;;10.88;2.45;;;14.20;99.90;;;;;;5030430;28;20246;-78
2022/12/31 11:59:54;;;;;;;10.98;2.55;;;14.20;99.90;;;;;;5030294;28;20645;-79
2022/12/31 12:02:32;;;;;;;10.57;2.28;;;14.20;99.90;;;;;;5013264;28;20225;-78
2022/12/31 12:05:00;;;;;;;11.38;2.35;;;14.20;99.90;;;;;;5020067;28;20349;-78
2022/12/31 12:07:28;;;;;;;10.93;2.40;;;14.20;99.90;;;;;;5047970;28;20248;-78
2022/12/31 12:09:56;;;;;;;13.90;3.22;;;14.30;99.90;;;;;;5030578;28;20532;-78
2022/12/31 12:12:22;;;;;;;10.98;2.10;;;14.30;99.90;;;;;;5033447;28;20176;-78
2022/12/31 12:14:52;;;;;;;7.45;2.00;;;14.20;99.90;;;;;;5035917;28;20758;-78
2022/12/31 12:17:31;;;;;;;9.75;2.35;;;14.30;99.90;;;;;;5051786;28;20206;-78
2022/12/31 12:20:01;;;;;;;8.10;1.98;;;14.20;99.90;;;;;;5042439;28;20190;-78
2022/12/31 12:22:29;;;;;;;7.55;2.10;;;14.20;99.90;;;;;;5019332;28;20218;-79
2022/12/31 12:25:05;;;;;;;11.05;2.55;;;14.20;99.90;;;;;;5036841;28;20176;-78
2022/12/31 12:27:35;;;;;;;8.90;2.17;;;14.30;99.90;;;;;;5035858;28;20675;-78
2022/12/31 12:30:19;;;;;;;10.15;2.22;;;14.20;99.90;;;;;;5032181;28;20272;-79
2022/12/31 12:33:00;;;;;;;16.17;2.85;;;14.20;99.90;;;;;;5059226;28;20282;-78
2022/12/31 12:35:31;;;;;;;9.13;2.70;;;14.20;99.90;;;;;;5035071;28;20191;-78
2022/12/31 12:37:59;;;;;;;13.32;2.83;;;14.20;99.90;;;;;;5068144;28;20235;-78
2022/12/31 12:40:25;;;;;;;9.95;2.40;;;14.20;99.90;;;;;;5028655;28;20175;-78
2022/12/31 12:42:52;;;;;;;11.38;2.65;;;14.20;99.90;;;;;;5026260;28;20339;-78
2022/12/31 12:45:22;;;;;;;15.30;3.13;;;14.20;99.90;;;;;;5035530;28;20191;-78
2022/12/31 12:47:55;;;;;;;9.40;2.83;;;14.20;99.90;;;;;;5067740;28;20190;-79
2022/12/31 12:50:35;;;;;;;10.77;2.50;;;14.20;99.90;;;;;;5035364;28;20187;-78
2022/12/31 12:53:14;;;;;;;10.70;2.67;;;14.20;99.90;;;;;;5029710;28;20226;-82
2022/12/31 12:55:46;;;;;;;9.10;2.55;;;14.20;99.90;;;;;;5026766;28;20176;-77
2022/12/31 12:58:23;;;;;;;15.82;2.60;;;14.20;99.90;;;;;;5030783;28;20255;-77
2022/12/31 13:01:09;;;;;;;13.20;2.90;;;14.20;99.90;;;;;;5030412;28;20223;-78
2022/12/31 13:03:56;;;;;;;9.07;2.55;;;14.20;99.90;;;;;;5021249;28;20958;-79
2022/12/31 13:07:06;;;;;;;11.50;2.10;;;14.20;99.90;;;;;;5034865;28;20316;-78
2022/12/31 13:10:12;;;;;;;12.80;2.70;;;14.20;99.90;;;;;;5067609;28;20192;-77
2022/12/31 13:12:46;;;;;;;11.50;2.58;;;14.20;99.90;;;;;;5010707;28;20211;-78
2022/12/31 13:15:14;;;;;;;8.82;2.78;;;14.30;99.90;;;;;;5021532;28;20188;-81
2022/12/31 13:18:20;;;;;;;12.85;2.95;;;14.30;99.90;;;;;;5015728;28;20231;-78
2022/12/31 13:20:52;;;;;;;11.13;2.25;;;14.30;99.90;;;;;;4995545;28;20729;-77
2022/12/31 13:23:43;;;;;;;8.15;2.15;;;14.30;99.90;;;;;;5034558;28;20184;-78
2022/12/31 13:26:57;;;;;;;13.90;3.20;;;14.30;99.90;;;;;;5034573;28;20180;-78
2022/12/31 13:29:26;;;;;;;11.93;2.67;;;14.30;99.90;;;;;;4974000;28;20307;-78
2022/12/31 13:31:55;;;;;;;12.32;3.22;;;14.20;99.90;;;;;;5027503;28;20279;-77
2022/12/31 13:34:39;;;;;;;14.02;2.97;;;14.20;99.90;;;;;;5042291;28;20287;-79
2022/12/31 13:37:22;;;;;;;11.23;2.83;;;14.20;99.90;;;;;;5033711;28;20234;-77
2022/12/31 13:39:54;;;;;;;10.27;2.35;;;14.20;99.90;;;;;;5034500;28;20174;-78